createdAt,value
2022-08-12T00:00:41.930Z,4.10
2022-08-12T00:03:28.171Z,3.73
2022-08-12T00:06:14.679Z,4.10
2022-08-12T00:09:00.699Z,4.37
2022-08-12T00:11:48.037Z,3.80
2022-08-12T00:14:33.840Z,3.90
2022-08-12T00:17:22.842Z,3.67
2022-08-12T00:20:09.363Z,3.73
2022-08-12T00:22:59.029Z,3.63
2022-08-12T00:26:21.159Z,3.57
2022-08-12T00:29:02.094Z,4.00
2022-08-12T00:31:47.859Z,4.00
2022-08-12T00:34:33.827Z,3.30
2022-08-12T00:37:19.971Z,4.07
2022-08-12T00:40:11.310Z,3.47
2022-08-12T00:42:40.296Z,3.57
2022-08-12T00:45:10.728Z,3.80
2022-08-12T00:47:39.430Z,3.40
2022-08-12T00:50:08.873Z,3.77
2022-08-12T00:52:37.168Z,3.00
2022-08-12T00:55:06.779Z,3.50
2022-08-12T00:57:36.451Z,3.40
2022-08-12T01:00:08.475Z,2.83
2022-08-12T01:02:40.461Z,3.33
2022-08-12T01:05:28.042Z,3.83
2022-08-12T01:08:14.376Z,3.27
2022-08-12T01:11:02.336Z,3.40
2022-08-12T01:13:31.290Z,3.33
2022-08-12T01:16:00.797Z,4.00
2022-08-12T01:18:31.285Z,3.87
2022-08-12T01:21:04.974Z,3.30
2022-08-12T01:23:54.283Z,3.37
2022-08-12T01:26:24.532Z,3.40
2022-08-12T01:28:54.806Z,3.30
2022-08-12T01:31:25.680Z,3.37
2022-08-12T01:34:05.243Z,3.47
2022-08-12T01:36:57.666Z,3.27
2022-08-12T01:39:31.037Z,4.33
2022-08-12T01:42:06.942Z,3.73
2022-08-12T01:44:35.962Z,3.60
2022-08-12T01:47:07.196Z,3.43
2022-08-12T01:49:45.013Z,3.63
2022-08-12T01:52:22.863Z,3.40
2022-08-12T01:54:51.796Z,3.23
2022-08-12T01:57:58.670Z,4.27
2022-08-12T02:00:15.627Z,4.17
2022-08-12T02:02:47.461Z,4.40
2022-08-12T02:05:36.066Z,3.57
2022-08-12T02:08:34.912Z,3.53
2022-08-12T02:11:21.359Z,3.37
2022-08-12T02:14:11.927Z,5.13
2022-08-12T02:16:48.243Z,4.10
2022-08-12T02:19:25.606Z,3.90
2022-08-12T02:21:57.179Z,3.40
2022-08-12T02:24:25.721Z,4.03
2022-08-12T02:26:58.254Z,4.10
2022-08-12T02:29:48.165Z,3.90
2022-08-12T02:32:17.890Z,3.63
2022-08-12T02:34:46.524Z,3.60
2022-08-12T02:37:16.829Z,3.50
2022-08-12T02:39:48.848Z,3.70
2022-08-12T02:42:18.279Z,3.53
2022-08-12T02:44:47.230Z,3.50
2022-08-12T02:47:58.631Z,3.43
2022-08-12T02:50:06.455Z,3.50
2022-08-12T02:52:34.886Z,3.80
2022-08-12T02:55:07.244Z,3.60
2022-08-12T02:57:36.071Z,3.60
2022-08-12T03:00:06.258Z,3.97
2022-08-12T03:02:35.307Z,4.37
2022-08-12T03:05:04.465Z,3.77
2022-08-12T03:07:56.349Z,4.00
2022-08-12T03:10:37.372Z,4.00
2022-08-12T03:13:07.061Z,4.20
2022-08-12T03:15:35.879Z,4.50
2022-08-12T03:18:26.088Z,3.90
2022-08-12T03:20:57.178Z,4.37
2022-08-12T03:23:30.176Z,4.60
2022-08-12T03:26:01.387Z,3.87
2022-08-12T03:28:48.843Z,4.90
2022-08-12T03:31:17.190Z,5.47
2022-08-12T03:34:01.241Z,4.70
2022-08-12T03:36:32.282Z,4.60
2022-08-12T03:39:16.802Z,4.00
2022-08-12T03:41:49.407Z,4.50
2022-08-12T03:44:36.927Z,4.73
2022-08-12T03:47:24.715Z,5.10
2022-08-12T03:50:12.169Z,4.50
2022-08-12T03:52:58.186Z,4.87
2022-08-12T03:55:45.607Z,5.27
2022-08-12T03:58:31.503Z,4.20
2022-08-12T04:00:59.907Z,3.90
2022-08-12T04:03:46.079Z,4.50
2022-08-12T04:06:14.808Z,4.33
2022-08-12T04:08:43.716Z,4.83
2022-08-12T04:11:32.238Z,4.50
2022-08-12T04:14:13.908Z,5.03
2022-08-12T04:16:42.778Z,4.40
2022-08-12T04:19:13.857Z,5.00
2022-08-12T04:22:01.163Z,4.30
2022-08-12T04:24:30.835Z,4.83
2022-08-12T04:27:00.394Z,5.17
2022-08-12T04:30:21.291Z,5.10
2022-08-12T04:32:17.045Z,4.37
2022-08-12T04:34:45.428Z,4.77
2022-08-12T04:37:15.985Z,5.40
2022-08-12T04:39:45.979Z,4.70
2022-08-12T04:42:16.045Z,4.87
2022-08-12T04:44:44.394Z,4.30
2022-08-12T04:47:14.112Z,5.53
2022-08-12T04:49:42.731Z,4.90
2022-08-12T04:52:11.116Z,4.37
2022-08-12T04:54:39.372Z,5.07
2022-08-12T04:57:09.562Z,5.40
2022-08-12T04:59:47.677Z,5.40
2022-08-12T05:02:21.399Z,4.30
2022-08-12T05:04:51.104Z,5.03
2022-08-12T05:07:19.394Z,4.77
2022-08-12T05:10:00.925Z,5.60
2022-08-12T05:12:34.563Z,5.37
2022-08-12T05:15:18.965Z,5.73
2022-08-12T05:17:48.319Z,6.27
2022-08-12T05:20:22.446Z,7.27
2022-08-12T05:22:57.486Z,6.80
2022-08-12T05:25:27.153Z,7.57
2022-08-12T05:27:59.094Z,7.63
2022-08-12T05:30:30.137Z,8.10
2022-08-12T05:33:00.213Z,7.27
2022-08-12T05:35:28.946Z,8.00
2022-08-12T05:38:11.051Z,8.30
2022-08-12T05:40:39.333Z,7.90
2022-08-12T05:43:07.830Z,8.23
2022-08-12T05:45:41.549Z,8.30
2022-08-12T05:48:12.570Z,7.87
2022-08-12T05:50:41.288Z,8.37
2022-08-12T05:53:09.486Z,8.13
2022-08-12T05:55:37.828Z,8.23
2022-08-12T05:58:09.545Z,9.40
2022-08-12T06:00:39.258Z,8.17
2022-08-12T06:03:08.058Z,8.47
2022-08-12T06:05:42.983Z,8.60
2022-08-12T06:08:23.968Z,9.87
2022-08-12T06:10:52.221Z,8.63
2022-08-12T06:13:28.442Z,8.07
2022-08-12T06:16:13.083Z,9.03
2022-08-12T06:18:41.491Z,8.60
2022-08-12T06:21:09.895Z,8.23
2022-08-12T06:23:42.695Z,7.80
2022-08-12T06:26:12.974Z,8.83
2022-08-12T06:28:41.678Z,9.00
2022-08-12T06:31:26.843Z,9.43
2022-08-12T06:35:22.691Z,8.93
2022-08-12T06:36:44.420Z,8.77
2022-08-12T06:39:14.271Z,9.13
2022-08-12T06:42:10.671Z,8.50
2022-08-12T06:44:50.293Z,8.00
2022-08-12T06:47:22.135Z,7.60
2022-08-12T06:49:52.487Z,9.67
2022-08-12T06:52:25.071Z,8.73
2022-08-12T06:54:55.282Z,9.00
2022-08-12T06:58:07.255Z,9.97
2022-08-12T07:00:16.729Z,18.57
2022-08-12T07:02:46.687Z,19.47
2022-08-12T07:05:14.962Z,20.60
2022-08-12T07:07:46.385Z,21.80
2022-08-12T07:10:18.028Z,24.07
2022-08-12T07:12:46.320Z,24.77
2022-08-12T07:15:14.652Z,26.03
2022-08-12T07:17:43.042Z,26.83
2022-08-12T07:20:42.502Z,27.57
2022-08-12T07:23:09.911Z,26.13
2022-08-12T07:25:43.051Z,25.73
2022-08-12T07:28:16.155Z,26.63
2022-08-12T07:30:46.179Z,28.20
2022-08-12T07:33:16.844Z,26.97
2022-08-12T07:35:50.519Z,28.67
2022-08-12T07:38:29.029Z,25.97
2022-08-12T07:41:02.064Z,28.70
2022-08-12T07:43:30.941Z,28.17
2022-08-12T07:46:00.404Z,28.13
2022-08-12T07:48:33.062Z,29.37
2022-08-12T07:51:02.810Z,28.60
2022-08-12T07:53:31.179Z,28.03
2022-08-12T07:56:02.591Z,28.00
2022-08-12T07:58:30.792Z,29.70
2022-08-12T08:01:00.579Z,29.33
2022-08-12T08:03:29.867Z,27.50
2022-08-12T08:05:58.342Z,27.57
2022-08-12T08:08:28.965Z,28.57
2022-08-12T08:11:18.649Z,27.33
2022-08-12T08:13:47.161Z,27.50
2022-08-12T08:16:15.857Z,27.90
2022-08-12T08:18:44.666Z,27.73
2022-08-12T08:21:15.388Z,29.93
2022-08-12T08:24:05.298Z,29.33
2022-08-12T08:26:33.915Z,28.17
2022-08-12T08:29:02.189Z,27.60
2022-08-12T08:31:32.462Z,27.63
2022-08-12T08:34:27.648Z,27.40
2022-08-12T08:36:49.506Z,27.23
2022-08-12T08:39:21.474Z,27.83
2022-08-12T08:42:16.571Z,28.10
2022-08-12T08:44:50.344Z,26.50
2022-08-12T08:47:26.801Z,26.97
2022-08-12T08:50:00.857Z,30.37
2022-08-12T08:52:40.581Z,29.90
2022-08-12T08:55:11.357Z,28.93
2022-08-12T08:57:42.722Z,29.60
2022-08-12T09:00:15.317Z,28.57
2022-08-12T09:02:49.128Z,28.83
2022-08-12T09:05:25.454Z,27.60
2022-08-12T09:08:09.156Z,27.87
2022-08-12T09:16:23.127Z,26.47
2022-08-12T09:18:52.592Z,26.90
2022-08-12T09:21:23.091Z,28.00
2022-08-12T09:26:46.535Z,26.43
2022-08-12T09:29:15.467Z,26.73
2022-08-12T09:32:05.881Z,26.37
2022-08-12T09:34:36.380Z,27.63
2022-08-12T09:37:18.832Z,30.17
2022-08-12T09:40:08.125Z,25.73
2022-08-12T09:43:15.099Z,26.50
2022-08-12T09:46:11.274Z,27.77
2022-08-12T09:48:39.950Z,27.87
2022-08-12T09:51:22.035Z,27.40
2022-08-12T09:54:06.797Z,27.27
2022-08-12T09:57:02.043Z,26.33
2022-08-12T10:00:14.855Z,28.00
2022-08-12T10:02:44.740Z,27.50
2022-08-12T10:05:13.021Z,28.83
2022-08-12T10:07:42.318Z,26.63
2022-08-12T10:10:22.862Z,28.17
2022-08-12T10:13:12.910Z,28.23
2022-08-12T10:16:01.851Z,26.47
2022-08-12T10:18:35.319Z,26.27
2022-08-12T10:21:07.353Z,28.07
2022-08-12T10:23:40.195Z,26.40
2022-08-12T10:26:37.491Z,25.40
2022-08-12T10:30:02.784Z,25.33
2022-08-12T10:32:22.412Z,26.83
2022-08-12T10:35:05.076Z,28.53
2022-08-12T10:38:37.601Z,27.17
2022-08-12T10:40:28.502Z,24.60
2022-08-12T10:43:17.547Z,27.23
2022-08-12T10:45:47.094Z,25.77
2022-08-12T10:48:21.609Z,28.33
2022-08-12T10:51:01.185Z,27.63
2022-08-12T10:53:43.991Z,25.60
2022-08-12T10:56:14.598Z,26.47
2022-08-12T10:58:44.842Z,26.93
2022-08-12T11:01:50.007Z,27.13
2022-08-12T11:04:35.377Z,42.07
2022-08-12T11:07:06.017Z,30.83
2022-08-12T11:09:58.367Z,26.23
2022-08-12T11:12:54.771Z,30.20
2022-08-12T11:15:24.614Z,58.23
2022-08-12T11:18:03.320Z,45.73
2022-08-12T11:20:33.159Z,27.90
2022-08-12T11:23:24.568Z,47.77
2022-08-12T11:25:58.079Z,45.20
2022-08-12T11:28:33.783Z,28.13
2022-08-12T11:31:07.047Z,42.20
2022-08-12T11:34:05.784Z,46.77
2022-08-12T11:36:32.576Z,27.17
2022-08-12T11:39:08.432Z,45.93
2022-08-12T11:41:42.963Z,29.23
2022-08-12T11:44:37.132Z,38.77
2022-08-12T11:47:00.110Z,28.23
2022-08-12T11:49:31.059Z,32.10
2022-08-12T11:52:01.840Z,29.13
2022-08-12T11:54:30.314Z,39.53
2022-08-12T11:57:00.059Z,30.00
2022-08-12T12:02:20.541Z,35.07
2022-08-12T12:04:52.832Z,39.87
2022-08-12T12:08:36.558Z,31.87
2022-08-12T12:10:13.266Z,32.57
2022-08-12T12:12:49.729Z,32.93
2022-08-12T12:15:25.310Z,48.70
2022-08-12T12:18:05.956Z,51.43
2022-08-12T12:20:36.205Z,52.37
2022-08-12T12:23:07.418Z,52.90
2022-08-12T12:26:07.486Z,60.47
2022-08-12T12:28:39.758Z,57.13
2022-08-12T12:31:14.519Z,53.07
2022-08-12T12:33:57.848Z,56.13
2022-08-12T12:36:30.101Z,58.57
2022-08-12T12:39:00.602Z,67.60
2022-08-12T12:42:41.544Z,59.53
2022-08-12T12:44:26.124Z,58.47
2022-08-12T12:47:28.821Z,57.43
2022-08-12T12:49:54.256Z,57.40
2022-08-12T12:52:26.987Z,59.90
2022-08-12T12:54:58.455Z,59.37
2022-08-12T12:57:58.948Z,61.03
2022-08-12T13:00:18.533Z,58.77
2022-08-12T13:02:53.626Z,61.67
2022-08-12T13:05:27.847Z,58.40
2022-08-12T13:08:00.787Z,58.50
2022-08-12T13:10:36.602Z,51.87
2022-08-12T13:14:06.851Z,30.37
2022-08-12T13:15:59.111Z,29.77
2022-08-12T13:18:28.846Z,31.03
2022-08-12T13:20:59.405Z,29.63
2022-08-12T13:23:37.321Z,30.50
2022-08-12T13:26:07.669Z,28.60
2022-08-12T13:28:45.640Z,27.80
2022-08-12T13:31:24.934Z,7.03
2022-08-12T13:34:33.656Z,6.57
2022-08-12T13:36:42.138Z,8.70
2022-08-12T13:39:10.903Z,6.53
2022-08-12T13:41:40.750Z,6.43
2022-08-12T13:44:11.311Z,7.20
2022-08-12T13:46:42.037Z,6.37
2022-08-12T13:49:53.318Z,9.23
2022-08-12T13:52:02.015Z,10.50
2022-08-12T13:54:32.826Z,5.90
2022-08-12T13:57:03.005Z,7.17
2022-08-12T13:59:48.214Z,7.57
2022-08-12T14:02:18.442Z,6.63
2022-08-12T14:04:56.235Z,6.67
2022-08-12T14:07:26.015Z,26.23
2022-08-12T14:10:16.370Z,34.53
2022-08-12T14:12:54.724Z,28.60
2022-08-12T14:15:36.484Z,19.37
2022-08-12T14:18:15.806Z,6.00
2022-08-12T14:20:47.540Z,6.60
2022-08-12T14:24:01.587Z,7.57
2022-08-12T14:26:06.217Z,5.93
2022-08-12T14:28:45.259Z,5.63
2022-08-12T14:31:31.398Z,4.10
2022-08-12T14:33:59.984Z,3.67
2022-08-12T14:36:34.071Z,3.83
2022-08-12T14:39:06.063Z,4.43
2022-08-12T14:41:37.150Z,4.23
2022-08-12T14:44:57.832Z,5.17
2022-08-12T14:47:08.928Z,4.33
2022-08-12T14:50:34.391Z,4.17
2022-08-12T14:53:15.412Z,4.30
2022-08-12T14:58:07.014Z,3.53
2022-08-12T15:00:54.306Z,5.23
2022-08-12T15:03:25.758Z,3.60
2022-08-12T15:06:39.814Z,2.37
2022-08-12T15:09:03.753Z,2.33
2022-08-12T15:11:55.288Z,2.37
2022-08-12T15:14:20.833Z,1.67
2022-08-12T15:16:51.955Z,2.33
2022-08-12T15:20:11.619Z,2.20
2022-08-12T15:22:37.913Z,1.83
2022-08-12T15:24:57.953Z,1.70
2022-08-12T15:27:31.794Z,2.00
2022-08-12T15:30:19.835Z,1.83
2022-08-12T15:32:53.508Z,2.33
2022-08-12T15:35:21.948Z,1.70
2022-08-12T15:38:08.847Z,1.90
2022-08-12T15:40:44.030Z,2.10
2022-08-12T15:43:51.229Z,1.70
2022-08-12T15:46:06.534Z,1.57
2022-08-12T15:48:36.405Z,1.50
2022-08-12T15:51:05.344Z,2.10
2022-08-12T15:53:53.244Z,1.60
2022-08-12T15:56:29.536Z,1.83
2022-08-12T15:58:59.374Z,2.07
2022-08-12T16:01:35.460Z,2.10
2022-08-12T16:04:06.051Z,1.70
2022-08-12T16:09:56.488Z,1.87
2022-08-12T16:12:12.485Z,2.20
2022-08-12T16:14:43.244Z,1.73
2022-08-12T16:17:15.501Z,1.63
2022-08-12T16:20:02.876Z,1.60
2022-08-12T16:22:33.526Z,1.87
2022-08-12T16:25:04.994Z,1.50
2022-08-12T16:27:38.592Z,1.73
2022-08-12T16:30:07.629Z,1.93
2022-08-12T16:32:36.784Z,1.50
2022-08-12T16:35:08.272Z,1.70
2022-08-12T16:38:25.497Z,1.70
2022-08-12T16:40:33.465Z,1.63
2022-08-12T16:43:04.863Z,1.30
2022-08-12T16:46:23.521Z,1.40
2022-08-12T16:48:35.385Z,1.80
2022-08-12T16:51:09.443Z,1.87
2022-08-12T16:53:44.418Z,1.47
2022-08-12T16:56:15.632Z,1.40
2022-08-12T16:58:46.989Z,1.23
2022-08-12T17:01:17.305Z,1.50
2022-08-12T17:04:04.434Z,1.43
2022-08-12T17:06:41.573Z,1.50
2022-08-12T17:09:17.652Z,1.27
2022-08-12T17:11:48.930Z,1.37
2022-08-12T17:14:22.918Z,1.20
2022-08-12T17:16:54.848Z,1.37
2022-08-12T17:20:29.371Z,1.20
2022-08-12T17:22:16.462Z,1.47
2022-08-12T17:24:54.585Z,1.37
2022-08-12T17:27:24.279Z,1.70
2022-08-12T17:30:03.107Z,1.53
2022-08-12T17:32:35.872Z,1.50
2022-08-12T17:35:30.257Z,1.53
2022-08-12T17:38:11.605Z,1.30
2022-08-12T17:40:40.287Z,1.27
2022-08-12T17:43:56.371Z,1.40
2022-08-12T17:45:59.035Z,1.00
2022-08-12T17:48:34.727Z,1.33
2022-08-12T17:51:06.985Z,1.37
2022-08-12T17:54:05.524Z,1.23
2022-08-12T17:56:31.832Z,1.10
2022-08-12T17:59:00.908Z,1.30
2022-08-12T18:01:29.479Z,1.27
2022-08-12T18:04:22.169Z,1.43
2022-08-12T18:06:51.970Z,1.10
2022-08-12T18:09:22.119Z,1.10
2022-08-12T18:12:11.217Z,1.40
2022-08-12T18:14:41.728Z,1.30
2022-08-12T18:17:17.880Z,1.30
2022-08-12T18:20:06.134Z,1.10
2022-08-12T18:22:35.020Z,1.50
2022-08-12T18:26:16.012Z,1.80
2022-08-12T18:28:16.960Z,1.07
2022-08-12T18:30:52.298Z,1.27
2022-08-12T18:33:23.686Z,1.30
2022-08-12T18:35:55.481Z,1.57
2022-08-12T18:38:25.553Z,1.37
2022-08-12T18:41:20.999Z,1.97
2022-08-12T18:43:59.167Z,1.50
2022-08-12T18:46:32.341Z,1.30
2022-08-12T18:49:16.865Z,1.40
2022-08-12T18:51:55.073Z,1.33
2022-08-12T18:54:25.633Z,1.33
2022-08-12T18:56:55.655Z,1.43
2022-08-12T19:00:00.937Z,1.33
2022-08-12T19:02:21.511Z,1.57
2022-08-12T19:04:53.329Z,1.20
2022-08-12T19:07:23.264Z,1.60
2022-08-12T19:09:58.646Z,1.53
2022-08-12T19:12:57.151Z,1.50
2022-08-12T19:15:26.633Z,2.07
2022-08-12T19:18:00.778Z,1.43
2022-08-12T19:20:31.681Z,1.40
2022-08-12T19:23:07.102Z,1.70
2022-08-12T19:26:01.354Z,1.43
2022-08-12T19:28:30.071Z,1.83
2022-08-12T19:31:56.747Z,1.83
2022-08-12T19:34:46.995Z,1.73
2022-08-12T19:37:11.803Z,1.60
2022-08-12T19:40:09.872Z,1.77
2022-08-12T19:42:30.734Z,1.40
2022-08-12T19:45:01.486Z,1.70
2022-08-12T19:47:38.766Z,1.23
2022-08-12T19:50:11.328Z,1.57
2022-08-12T19:52:41.606Z,1.67
2022-08-12T19:55:17.905Z,1.90
2022-08-12T19:58:03.318Z,1.43
2022-08-12T20:00:35.464Z,1.30
2022-08-12T20:03:07.336Z,1.50
2022-08-12T20:06:07.185Z,1.90
2022-08-12T20:08:34.323Z,1.30
2022-08-12T20:12:11.209Z,1.60
2022-08-12T20:14:01.423Z,1.70
2022-08-12T20:16:57.152Z,1.90
2022-08-12T20:19:52.095Z,1.70
2022-08-12T20:22:14.925Z,2.33
2022-08-12T20:24:55.230Z,1.33
2022-08-12T20:27:29.627Z,1.77
2022-08-12T20:30:14.199Z,1.53
2022-08-12T20:32:53.866Z,1.43
2022-08-12T20:35:24.803Z,1.57
2022-08-12T20:38:07.485Z,1.70
2022-08-12T20:40:42.096Z,1.50
2022-08-12T20:43:18.992Z,1.57
2022-08-12T20:45:51.029Z,1.70
2022-08-12T20:48:28.759Z,1.73
2022-08-12T20:50:58.068Z,1.47
2022-08-12T20:53:58.052Z,1.40
2022-08-12T20:56:31.206Z,1.43
2022-08-12T20:59:00.863Z,1.40
2022-08-12T21:01:46.857Z,1.33
2022-08-12T21:04:36.445Z,1.80
2022-08-12T21:07:08.443Z,1.70
2022-08-12T21:09:40.996Z,1.33
2022-08-12T21:12:27.312Z,1.70
2022-08-12T21:15:15.303Z,1.30
2022-08-12T21:18:00.857Z,1.50
2022-08-12T21:20:38.738Z,1.70
2022-08-12T21:23:07.543Z,1.50
2022-08-12T21:25:45.003Z,1.57
2022-08-12T21:28:14.009Z,1.30
2022-08-12T21:31:11.063Z,1.53
2022-08-12T21:33:31.688Z,2.03
2022-08-12T21:36:02.715Z,2.20
2022-08-12T21:38:40.289Z,1.30
2022-08-12T21:41:15.932Z,1.57
2022-08-12T21:43:48.695Z,1.60
2022-08-12T21:46:34.618Z,1.70
2022-08-12T21:49:05.460Z,1.53
2022-08-12T21:51:50.259Z,1.77
2022-08-12T21:54:21.869Z,1.63
2022-08-12T21:56:53.804Z,1.90
2022-08-12T21:59:26.113Z,1.80
2022-08-12T22:02:03.939Z,1.87
2022-08-12T22:04:51.505Z,1.57
2022-08-12T22:07:26.962Z,1.57
2022-08-12T22:09:57.246Z,1.60
2022-08-12T22:12:37.598Z,1.57
2022-08-12T22:15:09.241Z,1.83
2022-08-12T22:17:55.245Z,1.80
2022-08-12T22:20:29.681Z,1.60
2022-08-12T22:23:07.616Z,1.63
2022-08-12T22:25:53.295Z,1.63
2022-08-12T22:28:39.351Z,1.90
2022-08-12T22:31:15.198Z,1.67
2022-08-12T22:33:54.076Z,1.80
2022-08-12T22:36:29.241Z,2.00
2022-08-12T22:39:01.513Z,2.00
2022-08-12T22:41:56.900Z,1.80
2022-08-12T22:44:52.946Z,2.30
2022-08-12T22:47:54.956Z,3.07
2022-08-12T22:50:27.390Z,1.63
2022-08-12T22:53:15.109Z,1.77
2022-08-12T22:55:59.721Z,2.53
2022-08-12T22:58:35.188Z,1.90
2022-08-12T23:01:03.692Z,2.20
2022-08-12T23:03:49.335Z,1.80
2022-08-12T23:06:20.170Z,1.97
2022-08-12T23:08:48.671Z,1.93
2022-08-12T23:11:21.361Z,1.80
2022-08-12T23:13:55.949Z,2.10
2022-08-12T23:16:29.428Z,1.83
2022-08-12T23:19:01.457Z,2.23
2022-08-12T23:22:04.261Z,2.53
2022-08-12T23:24:19.096Z,1.97
2022-08-12T23:27:06.489Z,2.00
2022-08-12T23:29:43.296Z,1.80
2022-08-12T23:32:35.211Z,1.83
2022-08-12T23:35:03.839Z,2.10
2022-08-12T23:37:46.492Z,1.90
2022-08-12T23:40:19.652Z,2.00
2022-08-12T23:42:50.960Z,2.57
2022-08-12T23:45:30.683Z,2.00
2022-08-12T23:48:00.165Z,2.20
2022-08-12T23:50:33.370Z,2.30
2022-08-12T23:53:05.665Z,1.90
2022-08-12T23:55:38.232Z,2.03
2022-08-12T23:58:21.311Z,2.60
